Time;durP1;ratioP1;P1;durP2;ratioP2;P2;SDS_P1;SDS_P2;PMS_P1;PMS_P2;Temp;Humidity;BMP_temperature;BMP_pressure;BME280_temperature;BME280_humidity;BME280_pressure;Samples;Min_cycle;Max_cycle;Signal;HPM_P1;HPM_P2
2024/03/19 00:02:44;;;;;;;22.65;15.80;;;;;;;14.31;80.15;100316.75;5056984;28;20056;-78
2024/03/19 00:05:49;;;;;;;21.05;14.55;;;;;;;14.19;79.76;100314.44;5056862;28;20055;-77
2024/03/19 00:08:54;;;;;;;19.50;13.95;;;;;;;14.10;79.89;100318.91;5056978;28;20115;-76
2024/03/19 00:11:58;;;;;;;22.15;14.57;;;;;;;13.94;80.69;100323.34;5056796;28;20076;-77
2024/03/19 00:15:05;;;;;;;17.40;13.77;;;;;;;13.93;80.54;100329.75;5056510;28;20409;-78
2024/03/19 00:18:10;;;;;;;21.02;14.43;;;;;;;13.66;82.37;100323.47;5056587;28;20060;-78
2024/03/19 00:21:14;;;;;;;21.05;14.15;;;;;;;13.68;82.77;100328.69;5056578;28;20464;-78
2024/03/19 00:24:19;;;;;;;20.20;13.95;;;;;;;13.80;82.21;100324.75;5044208;28;20049;-77
2024/03/19 00:27:23;;;;;;;21.08;13.93;;;;;;;13.86;82.11;100329.53;5056623;28;20491;-78
2024/03/19 00:30:29;;;;;;;18.77;13.48;;;;;;;13.87;81.74;100338.47;5056507;28;20048;-77
2024/03/19 00:33:33;;;;;;;18.95;14.73;;;;;;;14.00;81.18;100331.66;5056378;28;20055;-77
2024/03/19 00:36:38;;;;;;;23.08;14.45;;;;;;;13.97;81.14;100341.94;5056420;28;20044;-78
2024/03/19 00:39:42;;;;;;;22.90;16.45;;;;;;;14.10;80.31;100347.75;5056416;28;20049;-78
2024/03/19 00:42:47;;;;;;;23.73;15.98;;;;;;;13.96;80.50;100342.94;5055853;28;20067;-78
2024/03/19 00:45:51;;;;;;;20.70;14.98;;;;;;;13.92;80.85;100352.34;5056243;28;20044;-78
2024/03/19 00:48:56;;;;;;;21.95;15.15;;;;;;;13.85;82.01;100348.59;5055864;28;20052;-78
2024/03/19 00:52:00;;;;;;;18.40;13.50;;;;;;;13.79;81.78;100349.19;5032241;28;20052;-77
2024/03/19 00:55:05;;;;;;;16.55;13.85;;;;;;;13.72;82.59;100345.44;5054427;28;20492;-77
2024/03/19 00:58:10;;;;;;;18.52;13.63;;;;;;;13.62;82.92;100342.81;5054341;28;20041;-77
2024/03/19 01:01:14;;;;;;;19.95;13.98;;;;;;;13.51;83.23;100343.03;5055497;28;20036;-77
2024/03/19 01:04:19;;;;;;;17.30;13.13;;;;;;;13.31;84.52;100338.78;5055513;28;20052;-77
2024/03/19 01:07:23;;;;;;;17.38;13.60;;;;;;;13.32;84.73;100340.47;5055813;28;20068;-77
2024/03/19 01:10:28;;;;;;;16.30;13.38;;;;;;;13.24;84.62;100338.53;5055135;28;20052;-77
2024/03/19 01:13:32;;;;;;;19.67;15.00;;;;;;;13.10;85.26;100341.75;5043336;28;20388;-78
2024/03/19 01:16:36;;;;;;;18.63;13.88;;;;;;;13.25;84.52;100340.25;5055275;28;20037;-77
2024/03/19 01:19:41;;;;;;;18.95;13.93;;;;;;;13.17;85.08;100336.59;5055473;28;20048;-77
2024/03/19 01:22:47;;;;;;;18.60;14.10;;;;;;;13.30;84.80;100327.16;5054983;28;20048;-78
2024/03/19 01:25:51;;;;;;;18.73;14.52;;;;;;;13.27;84.40;100327.47;5055642;28;20044;-78
2024/03/19 01:28:55;;;;;;;17.02;12.90;;;;;;;13.29;84.78;100330.84;5055222;28;20052;-77
2024/03/19 01:32:00;;;;;;;16.98;14.15;;;;;;;13.29;83.75;100327.28;5054937;28;20044;-77
2024/03/19 01:35:05;;;;;;;19.92;14.50;;;;;;;13.31;83.82;100319.91;5042341;28;20041;-78
2024/03/19 01:38:10;;;;;;;17.52;14.90;;;;;;;13.23;83.81;100318.00;5055280;28;20056;-78
2024/03/19 01:41:16;;;;;;;19.17;13.40;;;;;;;13.20;83.65;100317.44;5055048;28;20374;-77
2024/03/19 01:44:21;;;;;;;20.92;14.65;;;;;;;13.10;82.59;100308.56;5055261;28;20044;-78
2024/03/19 01:47:26;;;;;;;22.33;14.90;;;;;;;13.15;82.91;100303.56;5055327;28;20360;-77
2024/03/19 01:50:30;;;;;;;17.20;14.15;;;;;;;13.30;82.14;100316.38;5054628;28;20060;-78
2024/03/19 01:53:35;;;;;;;19.52;14.50;;;;;;;13.29;81.93;100306.59;5054759;28;20052;-77
2024/03/19 01:56:40;;;;;;;22.35;15.35;;;;;;;13.10;82.15;100303.19;5054597;28;20052;-77
2024/03/19 01:59:45;;;;;;;27.98;18.50;;;;;;;13.12;83.70;100306.56;5054876;28;20052;-78
2024/03/19 02:02:50;;;;;;;32.33;19.60;;;;;;;13.10;84.82;100308.56;5055020;28;20052;-78
2024/03/19 02:05:54;;;;;;;41.60;23.40;;;;;;;13.04;86.48;100305.44;5054834;28;20048;-78
2024/03/19 02:09:09;;;;;;;51.35;26.60;;;;;;;13.33;87.33;100307.97;5054650;28;20056;-78
2024/03/19 02:12:14;;;;;;;56.05;29.30;;;;;;;13.45;87.03;100305.91;5042236;28;20059;-77
2024/03/19 02:15:19;;;;;;;63.38;32.53;;;;;;;13.32;88.88;100302.75;5054235;28;20049;-78
2024/03/19 02:18:23;;;;;;;75.00;36.17;;;;;;;13.42;89.93;100295.41;5054389;28;20044;-78
2024/03/19 02:21:28;;;;;;;74.45;36.65;;;;;;;13.49;91.10;100294.66;5054228;28;20060;-77
2024/03/19 02:24:32;;;;;;;82.68;39.67;;;;;;;13.37;92.12;100300.44;5054378;28;20052;-78
2024/03/19 02:27:37;;;;;;;83.85;41.50;;;;;;;13.15;95.66;100296.34;5054280;28;20048;-78
2024/03/19 02:30:41;;;;;;;78.75;39.25;;;;;;;12.87;97.43;100294.63;5042296;28;20052;-77
2024/03/19 02:33:45;;;;;;;72.90;40.13;;;;;;;13.27;97.49;100284.34;5041566;28;20052;-78
2024/03/19 02:36:49;;;;;;;67.18;39.35;;;;;;;13.47;95.45;100288.56;5054148;28;20040;-78
2024/03/19 02:39:54;;;;;;;80.13;39.05;;;;;;;13.16;96.40;100275.63;5054086;28;20059;-77
2024/03/19 02:42:58;;;;;;;63.97;37.80;;;;;;;13.27;95.89;100278.09;5053822;28;20384;-77
2024/03/19 02:46:03;;;;;;;66.32;38.30;;;;;;;13.19;96.18;100275.31;5053896;28;20112;-77
2024/03/19 02:49:07;;;;;;;59.83;38.03;;;;;;;13.13;96.33;100276.78;5053941;28;20048;-77
2024/03/19 02:52:12;;;;;;;63.15;37.72;;;;;;;13.01;97.62;100277.97;5053886;28;20052;-77
2024/03/19 02:55:17;;;;;;;56.70;36.70;;;;;;;13.05;97.06;100274.81;5053842;28;20041;-77
2024/03/19 02:58:22;;;;;;;50.50;34.47;;;;;;;12.98;96.98;100276.44;5054066;28;20064;-77
2024/03/19 03:01:28;;;;;;;45.63;31.70;;;;;;;12.48;96.37;100282.38;5054212;28;20048;-76
2024/03/19 03:04:32;;;;;;;36.95;24.80;;;;;;;12.05;96.20;100285.63;5053952;28;20056;-76
2024/03/19 03:07:37;;;;;;;31.77;22.38;;;;;;;12.13;94.61;100274.97;5052907;28;20037;-76
2024/03/19 03:10:42;;;;;;;29.63;20.83;;;;;;;12.33;92.70;100264.00;5052971;28;20400;-76
2024/03/19 03:13:47;;;;;;;25.48;17.85;;;;;;;12.47;90.27;100262.66;5053643;28;20486;-77
2024/03/19 03:16:51;;;;;;;21.70;15.32;;;;;;;12.77;88.80;100269.59;5041659;28;20053;-77
2024/03/19 03:19:56;;;;;;;21.35;15.35;;;;;;;12.65;87.74;100260.88;5053291;28;20412;-77
2024/03/19 03:23:00;;;;;;;19.35;13.95;;;;;;;12.64;87.82;100267.25;5053173;28;20477;-77
2024/03/19 03:26:06;;;;;;;18.50;13.07;;;;;;;12.37;88.41;100267.25;5053572;28;20116;-77
2024/03/19 03:29:10;;;;;;;15.55;11.85;;;;;;;12.47;87.63;100268.06;5053789;28;20060;-78
2024/03/19 03:32:15;;;;;;;16.58;11.52;;;;;;;12.52;86.74;100273.84;5053628;28;20044;-77
2024/03/19 03:35:20;;;;;;;15.18;11.80;;;;;;;12.38;87.21;100271.63;5053725;28;20048;-77
2024/03/19 03:38:25;;;;;;;13.90;10.18;;;;;;;12.70;85.59;100279.28;5053859;28;20051;-77
2024/03/19 03:41:30;;;;;;;17.15;11.20;;;;;;;12.69;85.11;100277.59;5053393;28;20045;-77
2024/03/19 03:44:34;;;;;;;14.52;9.98;;;;;;;12.59;85.62;100279.50;5040917;28;20057;-77
2024/03/19 03:47:40;;;;;;;15.80;10.07;;;;;;;12.71;85.24;100283.69;5053725;28;20048;-77
2024/03/19 03:50:44;;;;;;;13.13;9.80;;;;;;;12.71;84.90;100281.84;5053211;28;20056;-77
2024/03/19 03:53:49;;;;;;;12.65;9.70;;;;;;;12.78;84.31;100287.47;5053369;28;20055;-77
2024/03/19 03:56:53;;;;;;;18.73;10.40;;;;;;;12.65;85.50;100286.97;5053600;28;20056;-77
2024/03/19 03:59:58;;;;;;;16.83;10.80;;;;;;;12.57;84.55;100289.53;5057072;28;20052;-77
2024/03/19 04:03:02;;;;;;;17.50;11.73;;;;;;;12.29;85.20;100297.59;5044737;28;20052;-77
2024/03/19 04:06:07;;;;;;;18.48;13.85;;;;;;;12.46;85.23;100289.75;5057007;28;20392;-76
2024/03/19 04:09:11;;;;;;;20.05;16.55;;;;;;;12.16;86.86;100302.47;5056867;28;20099;-77
2024/03/19 04:12:16;;;;;;;19.80;16.42;;;;;;;12.09;86.79;100301.34;5056658;28;20056;-76
2024/03/19 04:15:20;;;;;;;22.67;16.50;;;;;;;12.03;86.49;100309.13;5056960;28;20068;-77
2024/03/19 04:18:25;;;;;;;22.92;17.60;;;;;;;11.99;86.84;100315.81;5056908;28;20044;-76
2024/03/19 04:21:30;;;;;;;22.13;17.58;;;;;;;11.77;87.21;100305.38;5044629;28;20053;-77
2024/03/19 04:24:35;;;;;;;21.08;17.48;;;;;;;11.67;87.75;100316.09;5044253;28;20056;-77
2024/03/19 04:27:39;;;;;;;19.25;16.15;;;;;;;11.90;86.76;100317.50;5056333;28;20048;-77
2024/03/19 04:30:44;;;;;;;18.77;16.17;;;;;;;11.93;86.93;100330.69;5056467;28;20048;-77
2024/03/19 04:33:49;;;;;;;21.08;17.85;;;;;;;11.95;86.93;100333.25;5056299;28;20045;-77
2024/03/19 04:36:53;;;;;;;19.20;17.05;;;;;;;11.85;87.50;100333.22;5056435;28;20041;-77
2024/03/19 04:39:58;;;;;;;20.85;17.80;;;;;;;11.94;87.51;100332.38;5056345;28;20048;-77
2024/03/19 04:43:04;;;;;;;21.85;17.92;;;;;;;11.84;87.82;100336.94;5056228;28;20056;-78
2024/03/19 04:46:09;;;;;;;19.98;17.85;;;;;;;11.81;88.73;100349.78;5056171;28;20091;-78
2024/03/19 04:49:13;;;;;;;20.92;18.60;;;;;;;11.88;88.56;100345.53;5056275;28;20047;-78
2024/03/19 04:52:18;;;;;;;19.33;16.85;;;;;;;11.94;88.77;100353.91;5075815;28;20064;-78
2024/03/19 04:55:22;;;;;;;19.02;17.00;;;;;;;11.90;88.74;100355.16;5063878;28;20040;-77
2024/03/19 04:58:26;;;;;;;20.88;17.77;;;;;;;11.94;88.60;100355.75;5076532;28;20052;-77
2024/03/19 05:01:32;;;;;;;19.30;16.67;;;;;;;11.78;88.09;100366.25;5076071;28;20055;-77
2024/03/19 05:04:36;;;;;;;20.92;17.60;;;;;;;11.67;88.01;100365.34;5063254;28;20044;-78
2024/03/19 05:07:41;;;;;;;20.98;16.80;;;;;;;11.63;88.70;100366.59;5063302;28;20036;-77
2024/03/19 05:10:45;;;;;;;20.48;16.73;;;;;;;11.70;88.48;100370.47;5075763;28;20051;-78
2024/03/19 05:13:50;;;;;;;19.63;15.35;;;;;;;11.72;88.38;100359.59;5063322;28;20048;-77
2024/03/19 05:16:54;;;;;;;18.58;16.10;;;;;;;11.74;87.58;100368.34;5065367;28;20055;-78
2024/03/19 05:19:59;;;;;;;21.00;16.67;;;;;;;11.79;87.94;100376.84;5075333;28;20056;-77
2024/03/19 05:23:04;;;;;;;31.00;20.92;;;;;;;11.93;87.93;100372.84;5075588;28;20491;-78
2024/03/19 05:26:08;;;;;;;30.38;20.33;;;;;;;12.12;88.16;100371.00;5075703;28;20044;-77
2024/03/19 05:29:13;;;;;;;29.90;20.80;;;;;;;12.00;89.49;100384.78;5075511;28;20059;-78
2024/03/19 05:32:17;;;;;;;49.03;29.35;;;;;;;12.08;89.78;100380.34;5062917;28;20044;-78
2024/03/19 05:35:22;;;;;;;41.45;25.35;;;;;;;12.25;90.05;100387.69;5063095;28;20051;-77
2024/03/19 05:38:26;;;;;;;41.40;22.75;;;;;;;12.37;89.59;100397.31;5062769;28;20063;-77
2024/03/19 05:41:30;;;;;;;35.78;19.40;;;;;;;12.32;89.87;100399.56;5062817;28;20051;-77
2024/03/19 05:44:38;;;;;;;37.30;16.42;;;;;;;12.30;90.04;100404.25;5075119;28;20040;-77
2024/03/19 05:47:43;;;;;;;37.30;16.90;;;;;;;12.25;89.52;100414.59;5075017;28;20059;-77
2024/03/19 05:50:48;;;;;;;29.02;16.40;;;;;;;12.12;90.29;100423.97;5065903;28;20048;-76
2024/03/19 05:53:52;;;;;;;29.00;16.88;;;;;;;12.14;89.47;100430.06;5080396;28;20055;-78
2024/03/19 05:56:57;;;;;;;27.92;17.35;;;;;;;12.21;89.36;100432.03;5074346;28;20048;-78
2024/03/19 06:00:05;;;;;;;29.92;19.08;;;;;;;12.16;88.81;100444.22;5074916;28;20041;-76
2024/03/19 06:03:11;;;;;;;28.77;18.90;;;;;;;12.04;89.40;100448.91;5074724;28;20047;-77
2024/03/19 06:06:16;;;;;;;31.55;20.20;;;;;;;12.17;88.85;100454.84;5073841;28;20379;-77
2024/03/19 06:09:21;;;;;;;28.83;19.40;;;;;;;12.39;88.27;100459.91;5088146;28;20047;-78
2024/03/19 06:12:25;;;;;;;26.67;19.15;;;;;;;12.43;87.63;100459.63;5094173;28;20387;-78
2024/03/19 06:15:30;;;;;;;25.15;19.17;;;;;;;12.48;87.93;100471.69;5094854;28;20047;-78
2024/03/19 06:18:34;;;;;;;28.10;19.98;;;;;;;12.74;87.35;100474.63;5094163;28;20067;-78
2024/03/19 06:21:38;;;;;;;29.73;20.67;;;;;;;12.90;85.58;100477.53;5081523;28;20043;-77
2024/03/19 06:24:43;;;;;;;25.60;20.00;;;;;;;13.03;84.97;100481.59;5094663;28;20040;-77
2024/03/19 06:27:49;;;;;;;28.00;19.88;;;;;;;13.03;85.37;100484.28;5094513;28;20040;-76
2024/03/19 06:30:53;;;;;;;26.40;20.58;;;;;;;12.90;85.46;100493.69;5076154;28;20044;-76
2024/03/19 06:33:58;;;;;;;25.38;19.48;;;;;;;12.83;85.75;100488.06;5073326;28;20063;-76
2024/03/19 06:37:03;;;;;;;29.73;20.65;;;;;;;12.94;86.29;100493.25;5078389;28;20036;-77
2024/03/19 06:40:10;;;;;;;31.48;21.15;;;;;;;13.02;86.31;100488.00;5090893;28;20577;-78
2024/03/19 06:43:15;;;;;;;34.88;24.38;;;;;;;13.30;85.22;100497.00;5072454;28;20059;-75
2024/03/19 06:46:19;;;;;;;36.33;25.75;;;;;;;13.18;86.25;100495.50;5072446;28;20583;-75
2024/03/19 06:49:24;;;;;;;33.25;25.08;;;;;;;12.97;87.29;100492.13;5072062;28;20040;-74
2024/03/19 06:52:30;;;;;;;32.53;24.45;;;;;;;13.08;87.98;100493.81;5053809;28;20067;-77
2024/03/19 06:55:35;;;;;;;49.35;33.22;;;;;;;13.08;88.48;100491.97;5053805;28;20056;-76
2024/03/19 06:58:42;;;;;;;33.10;25.95;;;;;;;13.09;89.13;100488.28;5053909;28;20052;-76
2024/03/19 07:01:47;;;;;;;35.50;26.33;;;;;;;12.71;90.78;100496.44;5053737;28;20048;-76
2024/03/19 07:04:52;;;;;;;33.42;25.27;;;;;;;12.96;90.88;100501.22;5053878;28;20116;-77
2024/03/19 07:07:58;;;;;;;31.23;24.40;;;;;;;13.38;89.39;100507.88;5041390;28;20045;-77
2024/03/19 07:11:02;;;;;;;28.42;23.23;;;;;;;13.21;89.66;100505.13;5041339;28;20056;-72
2024/03/19 07:14:07;;;;;;;28.88;23.40;;;;;;;13.40;89.53;100511.28;5053522;28;20063;-72
2024/03/19 07:17:14;;;;;;;32.38;24.15;;;;;;;13.49;89.49;100510.38;5053563;28;20394;-73
2024/03/19 07:20:19;;;;;;;31.73;24.83;;;;;;;13.70;89.25;100521.75;5053256;28;20068;-73
2024/03/19 07:23:24;;;;;;;30.67;22.75;;;;;;;13.31;89.62;100514.84;5053379;28;20060;-77
2024/03/19 07:26:29;;;;;;;29.65;23.20;;;;;;;13.35;90.73;100512.72;5041310;28;20052;-77
2024/03/19 07:29:33;;;;;;;32.22;23.80;;;;;;;14.01;87.69;100521.44;5052998;28;20392;-77
2024/03/19 07:32:39;;;;;;;29.38;21.95;;;;;;;14.12;87.54;100518.53;5054406;28;20048;-75
2024/03/19 07:35:44;;;;;;;31.33;21.10;;;;;;;14.39;86.47;100521.19;5044496;28;20041;-75
2024/03/19 07:38:49;;;;;;;26.55;19.38;;;;;;;14.91;84.50;100527.53;5057230;28;20048;-76
2024/03/19 07:41:53;;;;;;;24.27;19.08;;;;;;;15.75;80.57;100528.50;5057365;28;20052;-77
2024/03/19 07:44:58;;;;;;;24.67;18.13;;;;;;;16.08;78.97;100521.34;5057096;28;20049;-77
2024/03/19 07:48:04;;;;;;;21.35;16.13;;;;;;;16.38;78.83;100525.28;5057080;28;20495;-77
2024/03/19 07:51:08;;;;;;;23.15;15.25;;;;;;;16.85;75.29;100529.91;5056547;28;20502;-78
2024/03/19 07:54:13;;;;;;;20.42;15.65;;;;;;;17.37;72.47;100538.47;5056947;28;20037;-77
2024/03/19 07:57:18;;;;;;;17.55;13.90;;;;;;;17.48;71.45;100538.09;5057101;28;20071;-77
2024/03/19 08:00:22;;;;;;;15.43;13.07;;;;;;;17.35;71.36;100531.53;5044719;28;20048;-77
2024/03/19 08:03:27;;;;;;;15.15;12.60;;;;;;;17.84;70.52;100534.94;5056709;28;20052;-77
2024/03/19 08:06:31;;;;;;;13.73;12.13;;;;;;;18.64;67.30;100541.78;5056876;28;20048;-78
2024/03/19 08:09:36;;;;;;;17.35;12.88;;;;;;;19.21;64.53;100544.81;5056565;28;20068;-74
2024/03/19 08:12:41;;;;;;;15.20;12.45;;;;;;;19.96;61.68;100540.06;5056546;28;20068;-73
2024/03/19 08:15:46;;;;;;;17.48;11.80;;;;;;;21.63;57.75;100535.75;5044738;28;20055;-72
2024/03/19 08:18:52;;;;;;;13.75;10.45;;;;;;;24.12;49.25;100534.13;5056446;28;20431;-72
2024/03/19 08:21:56;;;;;;;12.90;9.85;;;;;;;25.84;43.05;100543.56;5056499;28;20049;-78
2024/03/19 08:25:01;;;;;;;11.32;9.85;;;;;;;27.05;39.78;100547.84;5056179;28;20056;-75
2024/03/19 08:28:07;;;;;;;12.93;10.02;;;;;;;28.23;37.13;100547.56;5054509;28;20522;-75
2024/03/19 08:31:12;;;;;;;12.13;8.98;;;;;;;29.19;35.21;100553.00;5075508;28;20041;-75
2024/03/19 08:34:17;;;;;;;9.95;8.25;;;;;;;29.68;34.26;100545.72;5073934;28;20060;-73
2024/03/19 08:37:22;;;;;;;12.85;9.30;;;;;;;30.54;33.48;100546.91;5053754;28;20051;-72
2024/03/19 08:40:27;;;;;;;11.73;8.50;;;;;;;31.43;32.08;100551.59;5054361;28;20064;-72
2024/03/19 08:43:32;;;;;;;9.00;7.22;;;;;;;31.12;32.67;100548.84;5075039;28;20051;-73
2024/03/19 08:46:36;;;;;;;8.98;7.68;;;;;;;31.79;31.50;100562.97;5094438;28;20051;-74
2024/03/19 08:49:41;;;;;;;10.35;8.38;;;;;;;31.18;31.73;100561.69;5079209;28;20075;-73
2024/03/19 08:52:46;;;;;;;12.18;8.65;;;;;;;30.64;32.66;100570.00;5074226;28;20055;-72
2024/03/19 08:55:57;;;;;;;10.95;8.95;;;;;;;30.49;32.70;100567.03;5071676;28;20056;-73
2024/03/19 08:59:02;;;;;;;11.07;9.88;;;;;;;30.02;33.81;100563.94;5075154;28;20047;-72
2024/03/19 09:02:08;;;;;;;12.77;10.38;;;;;;;28.15;37.44;100564.50;5074863;28;20518;-73
2024/03/19 09:05:12;;;;;;;13.95;12.35;;;;;;;25.29;43.38;100564.63;5074912;28;20051;-73
2024/03/19 09:08:17;;;;;;;14.98;12.32;;;;;;;24.86;44.43;100556.28;5074745;28;20048;-73
2024/03/19 09:11:21;;;;;;;16.30;12.52;;;;;;;24.52;45.92;100570.44;5074983;28;20040;-73
2024/03/19 09:14:26;;;;;;;16.30;13.32;;;;;;;24.71;46.47;100560.41;5073698;28;20051;-73
2024/03/19 09:17:31;;;;;;;18.13;12.45;;;;;;;26.26;42.67;100567.41;5054548;28;20049;-73
2024/03/19 09:20:35;;;;;;;18.27;14.27;;;;;;;23.30;49.90;100575.00;5054519;28;20047;-73
2024/03/19 09:23:39;;;;;;;20.02;14.57;;;;;;;21.96;55.68;100575.06;5042217;28;20435;-73
2024/03/19 09:26:44;;;;;;;23.67;19.15;;;;;;;22.38;54.46;100569.38;5054312;28;20048;-72
2024/03/19 09:29:49;;;;;;;19.70;15.32;;;;;;;21.70;56.13;100574.91;5041964;28;20049;-72
2024/03/19 09:32:54;;;;;;;19.92;14.73;;;;;;;20.77;60.11;100572.44;5053084;28;20043;-73
2024/03/19 09:35:58;;;;;;;19.02;13.88;;;;;;;20.74;60.06;100575.56;5054163;28;20052;-73
2024/03/19 09:39:10;;;;;;;22.10;16.27;;;;;;;19.85;64.56;100579.50;5054233;28;20037;-73
2024/03/19 09:42:20;;;;;;;26.88;18.48;;;;;;;18.75;69.65;100576.69;5054492;28;20510;-73
2024/03/19 09:45:27;;;;;;;25.10;18.10;;;;;;;19.21;68.67;100585.63;5054439;28;20052;-73
2024/03/19 09:48:33;;;;;;;31.95;19.80;;;;;;;19.42;68.21;100583.94;5054392;28;20045;-73
2024/03/19 09:51:40;;;;;;;29.10;20.08;;;;;;;19.29;67.82;100578.25;5053406;28;20052;-73
2024/03/19 09:54:45;;;;;;;27.90;19.80;;;;;;;19.25;68.13;100581.53;5093708;28;20063;-73
2024/03/19 09:57:50;;;;;;;31.30;21.23;;;;;;;19.15;69.17;100589.97;5093737;28;20051;-73
2024/03/19 10:00:55;;;;;;;31.98;23.00;;;;;;;18.65;70.48;100587.81;5081951;28;20047;-73
2024/03/19 10:03:59;;;;;;;30.58;22.17;;;;;;;18.98;70.76;100576.69;5093458;28;20098;-73
2024/03/19 10:07:06;;;;;;;32.58;21.98;;;;;;;19.21;69.13;100574.75;5093301;28;20043;-73
2024/03/19 10:10:15;;;;;;;32.53;23.25;;;;;;;19.25;69.25;100584.25;5041612;28;20063;-73
2024/03/19 10:13:20;;;;;;;33.83;22.52;;;;;;;18.94;70.58;100581.63;5053687;28;20052;-75
2024/03/19 10:16:24;;;;;;;41.42;25.50;;;;;;;18.61;72.37;100572.91;5053661;28;20041;-75
2024/03/19 10:19:29;;;;;;;38.47;26.10;;;;;;;18.36;74.21;100576.75;5053625;28;20048;-75
2024/03/19 10:22:34;;;;;;;35.95;25.73;;;;;;;18.25;74.86;100571.72;5053544;28;20045;-75
2024/03/19 10:25:39;;;;;;;36.08;26.40;;;;;;;17.92;76.56;100571.06;5067991;28;20051;-75
2024/03/19 10:28:43;;;;;;;38.15;26.50;;;;;;;18.16;75.90;100573.66;5053172;28;20060;-75
2024/03/19 10:31:48;;;;;;;39.35;26.55;;;;;;;18.26;75.94;100565.28;5053348;28;20041;-75
2024/03/19 10:34:56;;;;;;;40.22;27.25;;;;;;;18.12;76.36;100571.47;5047735;28;20044;-76
2024/03/19 10:38:02;;;;;;;33.63;24.77;;;;;;;18.02;75.79;100568.94;5073373;28;20041;-75
2024/03/19 10:41:07;;;;;;;36.72;25.75;;;;;;;17.86;76.65;100573.63;5060172;28;20064;-75
2024/03/19 10:44:16;;;;;;;37.83;26.63;;;;;;;17.82;77.04;100566.84;5072884;28;20401;-76
2024/03/19 10:47:21;;;;;;;40.28;25.83;;;;;;;18.02;77.05;100565.41;5073630;28;20048;-75
2024/03/19 10:50:26;;;;;;;37.05;27.27;;;;;;;18.08;77.07;100573.69;5072467;28;20415;-75
2024/03/19 10:53:33;;;;;;;40.00;27.00;;;;;;;18.06;77.39;100569.44;5073351;28;20048;-76
2024/03/19 10:56:38;;;;;;;37.97;26.70;;;;;;;17.96;77.48;100563.38;5053165;28;20495;-76
2024/03/19 10:59:42;;;;;;;38.15;27.45;;;;;;;18.36;76.37;100555.03;5045353;28;20051;-75
2024/03/19 11:02:48;;;;;;;47.67;28.90;;;;;;;18.12;76.42;100569.56;5073047;28;20041;-76
2024/03/19 11:05:58;;;;;;;42.97;30.27;;;;;;;18.24;76.60;100555.59;5072591;28;20044;-76
2024/03/19 11:09:19;;;;;;;49.28;33.17;;;;;;;18.27;76.67;100560.69;5066951;28;20068;-76
2024/03/19 11:12:24;;;;;;;58.33;38.22;;;;;;;18.12;77.42;100557.88;5057123;28;20053;-76
2024/03/19 11:15:33;;;;;;;59.58;39.35;;;;;;;18.21;77.64;100554.09;5071475;28;20052;-76
2024/03/19 11:18:44;;;;;;;61.05;38.55;;;;;;;18.26;77.59;100554.41;5056810;28;20049;-76
2024/03/19 11:21:50;;;;;;;67.82;40.25;;;;;;;18.71;76.39;100556.34;5056849;28;20060;-76
2024/03/19 11:24:56;;;;;;;69.32;42.95;;;;;;;18.41;77.18;100543.59;5062453;28;20044;-76
2024/03/19 11:28:01;;;;;;;65.85;41.88;;;;;;;18.30;78.13;100558.44;5076929;28;20041;-76
2024/03/19 11:31:06;;;;;;;66.63;44.55;;;;;;;17.68;79.61;100548.59;5076171;28;20510;-76
2024/03/19 11:34:15;;;;;;;62.53;41.53;;;;;;;18.19;78.25;100543.38;5053141;28;20060;-76
2024/03/19 11:37:19;;;;;;;60.78;39.97;;;;;;;18.15;77.84;100541.22;5055264;28;20059;-76
2024/03/19 11:40:24;;;;;;;64.85;41.38;;;;;;;18.55;76.98;100542.84;5056825;28;20053;-76
2024/03/19 11:43:29;;;;;;;67.72;42.75;;;;;;;18.72;78.02;100536.25;5056403;28;20052;-75
2024/03/19 11:46:33;;;;;;;70.55;43.95;;;;;;;18.59;78.24;100545.00;5056650;28;20041;-75
2024/03/19 11:49:37;;;;;;;69.25;45.95;;;;;;;18.67;78.53;100534.09;5056860;28;20045;-75
2024/03/19 11:52:43;;;;;;;83.03;50.88;;;;;;;18.70;77.65;100536.44;5057142;28;20052;-75
2024/03/19 11:55:49;;;;;;;81.53;51.95;;;;;;;18.59;78.67;100525.16;5059543;28;20056;-76
2024/03/19 11:58:54;;;;;;;74.30;49.30;;;;;;;18.14;79.53;100526.81;5057066;28;20402;-75
2024/03/19 12:01:59;;;;;;;84.00;46.78;;;;;;;18.18;80.53;100519.13;5056615;28;20072;-74
2024/03/19 12:05:04;;;;;;;65.72;44.75;;;;;;;18.36;79.58;100518.84;5056940;28;20041;-76
2024/03/19 12:08:09;;;;;;;62.88;41.08;;;;;;;18.70;77.70;100519.28;5056802;28;20064;-76
2024/03/19 12:11:19;;;;;;;63.03;40.45;;;;;;;18.43;78.08;100519.78;5056652;28;20112;-76
2024/03/19 12:14:24;;;;;;;59.05;39.97;;;;;;;18.17;78.77;100509.28;5056458;28;20048;-76
2024/03/19 12:17:28;;;;;;;60.15;39.00;;;;;;;18.11;79.12;100519.00;5056525;28;20052;-76
2024/03/19 12:20:35;;;;;;;58.58;39.03;;;;;;;18.10;78.54;100522.72;5056490;28;20040;-76
2024/03/19 12:23:40;;;;;;;60.92;40.75;;;;;;;18.26;78.48;100510.91;5056302;28;20074;-75
2024/03/19 12:26:51;;;;;;;69.28;42.15;;;;;;;18.12;78.71;100511.69;5056394;28;20044;-76
2024/03/19 12:29:57;;;;;;;65.18;40.75;;;;;;;18.34;77.78;100512.75;5056334;28;20048;-76
2024/03/19 12:36:09;;;;;;;67.47;39.80;;;;;;;18.35;78.83;100501.66;5056250;28;20048;-82
2024/03/19 12:39:14;;;;;;;59.10;38.95;;;;;;;18.52;78.42;100497.84;5054737;28;20538;-79
2024/03/19 12:42:23;;;;;;;56.15;38.10;;;;;;;18.13;78.24;100499.78;5054423;28;20060;-78
2024/03/19 12:45:28;;;;;;;60.28;39.15;;;;;;;18.30;78.93;100489.66;5055445;28;20045;-79
2024/03/19 12:48:35;;;;;;;61.55;39.60;;;;;;;18.16;78.86;100496.72;5055193;28;20428;-79
2024/03/19 12:51:41;;;;;;;54.90;36.50;;;;;;;18.38;78.97;100487.72;5054869;28;20045;-77
2024/03/19 12:54:46;;;;;;;52.75;36.25;;;;;;;18.29;79.25;100480.69;5055401;28;20163;-78
2024/03/19 12:57:50;;;;;;;49.03;33.13;;;;;;;18.22;79.50;100487.84;5055879;28;20049;-81
2024/03/19 13:00:56;;;;;;;52.10;37.10;;;;;;;18.48;78.48;100488.38;5043872;28;20048;-81
2024/03/19 13:04:01;;;;;;;50.20;35.67;;;;;;;18.08;79.54;100486.75;5055798;28;20055;-80
2024/03/19 13:07:06;;;;;;;56.03;35.38;;;;;;;18.10;80.26;100489.28;5055463;28;20116;-80
2024/03/19 13:10:10;;;;;;;49.35;35.88;;;;;;;17.98;81.00;100482.56;5055682;28;20048;-80
2024/03/19 13:13:16;;;;;;;49.75;36.40;;;;;;;18.18;79.71;100490.09;5055600;28;20412;-79
2024/03/19 13:16:20;;;;;;;50.80;35.25;;;;;;;18.05;79.91;100478.09;5055524;28;20053;-79
2024/03/19 13:19:25;;;;;;;45.67;33.72;;;;;;;17.88;80.93;100479.22;5055427;28;20052;-79
2024/03/19 13:22:30;;;;;;;46.15;34.47;;;;;;;17.82;82.28;100479.94;5055338;28;20041;-79
2024/03/19 13:25:36;;;;;;;48.38;32.47;;;;;;;18.04;82.18;100473.72;5054964;28;20045;-78
2024/03/19 13:28:41;;;;;;;43.85;33.30;;;;;;;18.04;81.91;100474.56;5055481;28;20044;-79
2024/03/19 13:31:47;;;;;;;42.35;33.30;;;;;;;17.99;81.32;100478.84;5070232;28;20467;-80
2024/03/19 13:34:52;;;;;;;48.67;34.40;;;;;;;18.10;81.03;100479.25;5074035;28;20048;-80
2024/03/19 13:37:57;;;;;;;42.97;32.75;;;;;;;18.36;80.32;100473.47;5074295;28;20044;-80
2024/03/19 13:41:02;;;;;;;41.90;31.92;;;;;;;18.33;77.68;100473.84;5073326;28;20047;-80
2024/03/19 13:44:06;;;;;;;42.58;32.25;;;;;;;18.40;78.51;100479.38;5063236;28;20056;-79
2024/03/19 13:47:11;;;;;;;42.05;31.70;;;;;;;18.65;78.97;100484.47;5088657;28;20044;-79
2024/03/19 13:50:16;;;;;;;41.92;31.27;;;;;;;18.86;78.87;100480.22;5093516;28;20048;-79
2024/03/19 13:53:20;;;;;;;42.47;32.13;;;;;;;18.58;77.40;100478.09;5094337;28;20430;-77
2024/03/19 13:56:25;;;;;;;39.72;31.38;;;;;;;18.80;77.47;100468.19;5093711;28;20046;-79
2024/03/19 13:59:30;;;;;;;39.50;31.27;;;;;;;18.89;77.46;100471.69;5094278;28;20047;-79
2024/03/19 14:02:35;;;;;;;39.50;31.02;;;;;;;18.98;76.73;100465.13;5094311;28;20044;-78
2024/03/19 14:05:44;;;;;;;36.35;29.58;;;;;;;18.78;78.31;100468.38;5093617;28;20047;-79